sensor_id;sensor_type;location;lat;lon;timestamp;P1;durP1;ratioP1;P2;durP2;ratioP2
3261;SDS011;1643;47.746;9.000;2022-10-16T00:00:34;2.50;;;1.50;;
3261;SDS011;1643;47.746;9.000;2022-10-16T00:03:01;4.57;;;1.37;;
3261;SDS011;1643;47.746;9.000;2022-10-16T00:05:27;1.80;;;1.70;;
3261;SDS011;1643;47.746;9.000;2022-10-16T00:07:53;2.03;;;1.60;;
3261;SDS011;1643;47.746;9.000;2022-10-16T00:10:19;1.63;;;1.33;;
3261;SDS011;1643;47.746;9.000;2022-10-16T00:12:45;2.27;;;1.63;;
3261;SDS011;1643;47.746;9.000;2022-10-16T00:15:11;1.60;;;1.50;;
3261;SDS011;1643;47.746;9.000;2022-10-16T00:17:36;1.70;;;1.60;;
3261;SDS011;1643;47.746;9.000;2022-10-16T00:20:03;3.80;;;1.30;;
3261;SDS011;1643;47.746;9.000;2022-10-16T00:22:29;1.50;;;1.40;;
3261;SDS011;1643;47.746;9.000;2022-10-16T00:24:55;2.40;;;1.50;;
3261;SDS011;1643;47.746;9.000;2022-10-16T00:27:21;2.00;;;1.80;;
3261;SDS011;1643;47.746;9.000;2022-10-16T00:29:50;3.30;;;1.33;;
3261;SDS011;1643;47.746;9.000;2022-10-16T00:32:17;3.10;;;1.40;;
3261;SDS011;1643;47.746;9.000;2022-10-16T00:34:43;1.50;;;1.40;;
3261;SDS011;1643;47.746;9.000;2022-10-16T00:37:09;4.17;;;1.30;;
3261;SDS011;1643;47.746;9.000;2022-10-16T00:39:35;7.60;;;1.60;;
3261;SDS011;1643;47.746;9.000;2022-10-16T00:42:01;3.97;;;1.80;;
3261;SDS011;1643;47.746;9.000;2022-10-16T00:44:47;1.60;;;1.50;;
3261;SDS011;1643;47.746;9.000;2022-10-16T00:47:19;2.90;;;1.50;;
3261;SDS011;1643;47.746;9.000;2022-10-16T00:49:47;2.23;;;1.40;;
3261;SDS011;1643;47.746;9.000;2022-10-16T00:52:13;2.53;;;1.57;;
3261;SDS011;1643;47.746;9.000;2022-10-16T00:54:40;2.50;;;1.80;;
3261;SDS011;1643;47.746;9.000;2022-10-16T00:57:06;5.43;;;1.83;;
3261;SDS011;1643;47.746;9.000;2022-10-16T00:59:36;2.40;;;1.77;;
3261;SDS011;1643;47.746;9.000;2022-10-16T01:02:05;4.23;;;1.57;;
3261;SDS011;1643;47.746;9.000;2022-10-16T01:04:38;1.50;;;1.40;;
3261;SDS011;1643;47.746;9.000;2022-10-16T01:09:37;3.60;;;1.80;;
3261;SDS011;1643;47.746;9.000;2022-10-16T01:12:13;1.87;;;1.77;;
3261;SDS011;1643;47.746;9.000;2022-10-16T01:17:14;1.60;;;1.50;;
3261;SDS011;1643;47.746;9.000;2022-10-16T01:22:10;2.10;;;2.00;;
3261;SDS011;1643;47.746;9.000;2022-10-16T01:24:40;4.20;;;2.07;;
3261;SDS011;1643;47.746;9.000;2022-10-16T01:35:15;1.50;;;1.40;;
3261;SDS011;1643;47.746;9.000;2022-10-16T01:40:00;1.77;;;1.60;;
3261;SDS011;1643;47.746;9.000;2022-10-16T01:42:29;2.13;;;1.93;;
3261;SDS011;1643;47.746;9.000;2022-10-16T01:44:56;3.10;;;2.00;;
3261;SDS011;1643;47.746;9.000;2022-10-16T01:47:23;10.33;;;1.97;;
3261;SDS011;1643;47.746;9.000;2022-10-16T01:49:50;3.97;;;2.07;;
3261;SDS011;1643;47.746;9.000;2022-10-16T01:52:18;2.10;;;1.97;;
3261;SDS011;1643;47.746;9.000;2022-10-16T01:54:47;2.13;;;2.03;;
3261;SDS011;1643;47.746;9.000;2022-10-16T01:57:14;2.27;;;2.07;;
3261;SDS011;1643;47.746;9.000;2022-10-16T01:59:46;2.33;;;1.80;;
3261;SDS011;1643;47.746;9.000;2022-10-16T02:02:13;3.93;;;2.17;;
3261;SDS011;1643;47.746;9.000;2022-10-16T02:04:42;1.90;;;1.80;;
3261;SDS011;1643;47.746;9.000;2022-10-16T02:07:09;2.00;;;1.90;;
3261;SDS011;1643;47.746;9.000;2022-10-16T02:09:35;2.27;;;2.07;;
3261;SDS011;1643;47.746;9.000;2022-10-16T02:12:07;1.73;;;1.63;;
3261;SDS011;1643;47.746;9.000;2022-10-16T02:14:37;2.70;;;2.07;;
3261;SDS011;1643;47.746;9.000;2022-10-16T02:17:09;2.93;;;2.50;;
3261;SDS011;1643;47.746;9.000;2022-10-16T02:19:35;3.30;;;2.37;;
3261;SDS011;1643;47.746;9.000;2022-10-16T02:22:04;2.27;;;1.87;;
3261;SDS011;1643;47.746;9.000;2022-10-16T02:29:55;4.30;;;2.10;;
3261;SDS011;1643;47.746;9.000;2022-10-16T02:32:27;3.73;;;2.20;;
3261;SDS011;1643;47.746;9.000;2022-10-16T02:34:56;2.97;;;2.50;;
3261;SDS011;1643;47.746;9.000;2022-10-16T02:37:22;4.40;;;2.43;;
3261;SDS011;1643;47.746;9.000;2022-10-16T02:39:48;4.30;;;2.30;;
3261;SDS011;1643;47.746;9.000;2022-10-16T02:42:14;3.00;;;2.27;;
3261;SDS011;1643;47.746;9.000;2022-10-16T02:44:40;2.53;;;2.33;;
3261;SDS011;1643;47.746;9.000;2022-10-16T02:47:06;4.67;;;2.70;;
3261;SDS011;1643;47.746;9.000;2022-10-16T02:49:32;3.20;;;2.73;;
3261;SDS011;1643;47.746;9.000;2022-10-16T02:51:58;3.33;;;2.53;;
3261;SDS011;1643;47.746;9.000;2022-10-16T02:54:24;3.83;;;2.13;;
3261;SDS011;1643;47.746;9.000;2022-10-16T02:56:50;2.37;;;2.17;;
3261;SDS011;1643;47.746;9.000;2022-10-16T02:59:16;2.40;;;2.20;;
3261;SDS011;1643;47.746;9.000;2022-10-16T03:01:43;2.40;;;2.13;;
3261;SDS011;1643;47.746;9.000;2022-10-16T03:04:09;5.20;;;2.47;;
3261;SDS011;1643;47.746;9.000;2022-10-16T03:06:34;2.40;;;2.20;;
3261;SDS011;1643;47.746;9.000;2022-10-16T03:09:01;2.50;;;2.30;;
3261;SDS011;1643;47.746;9.000;2022-10-16T03:11:27;2.60;;;2.23;;
3261;SDS011;1643;47.746;9.000;2022-10-16T03:13:53;4.13;;;2.20;;
3261;SDS011;1643;47.746;9.000;2022-10-16T03:16:19;2.97;;;2.67;;
3261;SDS011;1643;47.746;9.000;2022-10-16T03:18:48;3.57;;;2.10;;
3261;SDS011;1643;47.746;9.000;2022-10-16T03:21:15;2.20;;;2.00;;
3261;SDS011;1643;47.746;9.000;2022-10-16T03:23:40;3.00;;;2.20;;
3261;SDS011;1643;47.746;9.000;2022-10-16T03:26:06;2.00;;;1.90;;
3261;SDS011;1643;47.746;9.000;2022-10-16T03:28:32;3.00;;;2.20;;
3261;SDS011;1643;47.746;9.000;2022-10-16T03:30:58;3.40;;;2.20;;
3261;SDS011;1643;47.746;9.000;2022-10-16T03:33:24;4.00;;;2.33;;
3261;SDS011;1643;47.746;9.000;2022-10-16T03:35:54;3.00;;;2.37;;
3261;SDS011;1643;47.746;9.000;2022-10-16T03:38:20;2.47;;;2.27;;
3261;SDS011;1643;47.746;9.000;2022-10-16T03:40:46;9.07;;;2.40;;
3261;SDS011;1643;47.746;9.000;2022-10-16T03:43:12;2.50;;;2.00;;
3261;SDS011;1643;47.746;9.000;2022-10-16T03:45:38;3.13;;;2.73;;
3261;SDS011;1643;47.746;9.000;2022-10-16T03:48:04;4.63;;;2.40;;
3261;SDS011;1643;47.746;9.000;2022-10-16T03:50:30;2.80;;;2.60;;
3261;SDS011;1643;47.746;9.000;2022-10-16T03:52:56;5.50;;;2.80;;
3261;SDS011;1643;47.746;9.000;2022-10-16T03:55:22;2.40;;;2.20;;
3261;SDS011;1643;47.746;9.000;2022-10-16T03:57:48;3.53;;;2.43;;
3261;SDS011;1643;47.746;9.000;2022-10-16T04:00:14;2.30;;;2.10;;
3261;SDS011;1643;47.746;9.000;2022-10-16T04:02:40;2.80;;;2.50;;
3261;SDS011;1643;47.746;9.000;2022-10-16T04:05:06;2.37;;;2.23;;
3261;SDS011;1643;47.746;9.000;2022-10-16T04:07:32;4.67;;;2.67;;
3261;SDS011;1643;47.746;9.000;2022-10-16T04:09:58;2.77;;;2.13;;
3261;SDS011;1643;47.746;9.000;2022-10-16T04:12:25;10.97;;;2.80;;
3261;SDS011;1643;47.746;9.000;2022-10-16T04:14:51;2.40;;;2.03;;
3261;SDS011;1643;47.746;9.000;2022-10-16T04:17:17;3.20;;;2.53;;
3261;SDS011;1643;47.746;9.000;2022-10-16T04:19:43;3.90;;;2.20;;
3261;SDS011;1643;47.746;9.000;2022-10-16T04:22:09;5.73;;;2.30;;
3261;SDS011;1643;47.746;9.000;2022-10-16T04:24:35;2.57;;;2.27;;
3261;SDS011;1643;47.746;9.000;2022-10-16T04:27:01;4.27;;;2.30;;
3261;SDS011;1643;47.746;9.000;2022-10-16T04:29:27;6.27;;;2.53;;
3261;SDS011;1643;47.746;9.000;2022-10-16T04:31:53;15.73;;;2.83;;
3261;SDS011;1643;47.746;9.000;2022-10-16T04:34:19;3.43;;;2.20;;
3261;SDS011;1643;47.746;9.000;2022-10-16T04:36:48;3.27;;;2.90;;
3261;SDS011;1643;47.746;9.000;2022-10-16T04:39:14;3.07;;;2.87;;
3261;SDS011;1643;47.746;9.000;2022-10-16T04:41:40;5.80;;;2.97;;
3261;SDS011;1643;47.746;9.000;2022-10-16T04:44:06;3.30;;;2.20;;
3261;SDS011;1643;47.746;9.000;2022-10-16T04:46:33;3.43;;;2.23;;
3261;SDS011;1643;47.746;9.000;2022-10-16T04:48:59;2.20;;;2.00;;
3261;SDS011;1643;47.746;9.000;2022-10-16T04:51:25;2.50;;;2.20;;
3261;SDS011;1643;47.746;9.000;2022-10-16T04:53:52;2.20;;;2.00;;
3261;SDS011;1643;47.746;9.000;2022-10-16T04:56:19;3.83;;;2.43;;
3261;SDS011;1643;47.746;9.000;2022-10-16T04:58:46;3.63;;;2.40;;
3261;SDS011;1643;47.746;9.000;2022-10-16T05:01:12;10.27;;;2.67;;
3261;SDS011;1643;47.746;9.000;2022-10-16T05:03:38;3.43;;;2.60;;
3261;SDS011;1643;47.746;9.000;2022-10-16T05:06:06;5.37;;;2.30;;
3261;SDS011;1643;47.746;9.000;2022-10-16T05:08:33;2.60;;;2.33;;
3261;SDS011;1643;47.746;9.000;2022-10-16T05:10:59;3.47;;;2.63;;
3261;SDS011;1643;47.746;9.000;2022-10-16T05:13:26;6.03;;;2.80;;
3261;SDS011;1643;47.746;9.000;2022-10-16T05:15:52;8.73;;;4.10;;
3261;SDS011;1643;47.746;9.000;2022-10-16T05:18:18;2.30;;;2.10;;
3261;SDS011;1643;47.746;9.000;2022-10-16T05:20:44;3.43;;;2.50;;
3261;SDS011;1643;47.746;9.000;2022-10-16T05:23:10;4.50;;;2.50;;
3261;SDS011;1643;47.746;9.000;2022-10-16T05:25:36;3.53;;;2.17;;
3261;SDS011;1643;47.746;9.000;2022-10-16T05:28:03;2.73;;;2.50;;
3261;SDS011;1643;47.746;9.000;2022-10-16T05:30:29;3.97;;;3.40;;
3261;SDS011;1643;47.746;9.000;2022-10-16T05:32:55;3.90;;;3.50;;
3261;SDS011;1643;47.746;9.000;2022-10-16T05:35:20;4.90;;;3.00;;
3261;SDS011;1643;47.746;9.000;2022-10-16T05:37:47;4.60;;;3.10;;
3261;SDS011;1643;47.746;9.000;2022-10-16T05:40:13;3.70;;;3.40;;
3261;SDS011;1643;47.746;9.000;2022-10-16T05:42:40;3.20;;;2.57;;
3261;SDS011;1643;47.746;9.000;2022-10-16T05:45:06;3.57;;;3.27;;
3261;SDS011;1643;47.746;9.000;2022-10-16T05:47:32;3.90;;;2.73;;
3261;SDS011;1643;47.746;9.000;2022-10-16T05:49:59;3.10;;;2.77;;
3261;SDS011;1643;47.746;9.000;2022-10-16T05:52:26;4.80;;;2.97;;
3261;SDS011;1643;47.746;9.000;2022-10-16T05:54:52;3.77;;;3.47;;
3261;SDS011;1643;47.746;9.000;2022-10-16T05:57:18;4.03;;;3.53;;
3261;SDS011;1643;47.746;9.000;2022-10-16T05:59:44;3.33;;;2.80;;
3261;SDS011;1643;47.746;9.000;2022-10-16T06:02:13;3.17;;;2.87;;
3261;SDS011;1643;47.746;9.000;2022-10-16T06:04:39;2.70;;;2.50;;
3261;SDS011;1643;47.746;9.000;2022-10-16T06:07:05;3.57;;;2.87;;
3261;SDS011;1643;47.746;9.000;2022-10-16T06:09:31;3.57;;;2.80;;
3261;SDS011;1643;47.746;9.000;2022-10-16T06:11:57;3.00;;;2.70;;
3261;SDS011;1643;47.746;9.000;2022-10-16T06:14:23;3.13;;;2.93;;
3261;SDS011;1643;47.746;9.000;2022-10-16T06:16:50;5.53;;;3.20;;
3261;SDS011;1643;47.746;9.000;2022-10-16T06:19:16;3.50;;;2.90;;
3261;SDS011;1643;47.746;9.000;2022-10-16T06:21:42;3.57;;;3.23;;
3261;SDS011;1643;47.746;9.000;2022-10-16T06:24:09;3.57;;;2.97;;
3261;SDS011;1643;47.746;9.000;2022-10-16T06:26:35;3.60;;;3.30;;
3261;SDS011;1643;47.746;9.000;2022-10-16T06:29:01;5.00;;;3.27;;
3261;SDS011;1643;47.746;9.000;2022-10-16T06:31:27;4.10;;;2.93;;
3261;SDS011;1643;47.746;9.000;2022-10-16T06:33:56;3.43;;;3.13;;
3261;SDS011;1643;47.746;9.000;2022-10-16T06:36:22;3.53;;;3.20;;
3261;SDS011;1643;47.746;9.000;2022-10-16T06:38:48;6.53;;;3.63;;
3261;SDS011;1643;47.746;9.000;2022-10-16T06:41:16;4.03;;;3.60;;
3261;SDS011;1643;47.746;9.000;2022-10-16T06:43:42;3.23;;;2.93;;
3261;SDS011;1643;47.746;9.000;2022-10-16T06:46:12;3.70;;;2.90;;
3261;SDS011;1643;47.746;9.000;2022-10-16T06:48:38;3.50;;;3.20;;
3261;SDS011;1643;47.746;9.000;2022-10-16T06:51:05;4.53;;;3.10;;
3261;SDS011;1643;47.746;9.000;2022-10-16T06:53:33;5.93;;;3.57;;
3261;SDS011;1643;47.746;9.000;2022-10-16T06:56:09;3.27;;;2.90;;
3261;SDS011;1643;47.746;9.000;2022-10-16T06:58:35;3.60;;;3.30;;
3261;SDS011;1643;47.746;9.000;2022-10-16T07:01:02;5.93;;;3.63;;
3261;SDS011;1643;47.746;9.000;2022-10-16T07:03:28;10.00;;;4.10;;
3261;SDS011;1643;47.746;9.000;2022-10-16T07:05:54;8.17;;;4.20;;
3261;SDS011;1643;47.746;9.000;2022-10-16T07:08:21;6.00;;;4.03;;
3261;SDS011;1643;47.746;9.000;2022-10-16T07:10:47;9.47;;;3.90;;
3261;SDS011;1643;47.746;9.000;2022-10-16T07:13:13;4.53;;;4.10;;
3261;SDS011;1643;47.746;9.000;2022-10-16T07:15:39;6.30;;;4.67;;
3261;SDS011;1643;47.746;9.000;2022-10-16T07:18:06;5.33;;;4.80;;
3261;SDS011;1643;47.746;9.000;2022-10-16T07:20:32;5.63;;;4.40;;
3261;SDS011;1643;47.746;9.000;2022-10-16T07:22:58;7.60;;;4.77;;
3261;SDS011;1643;47.746;9.000;2022-10-16T07:25:24;5.47;;;3.90;;
3261;SDS011;1643;47.746;9.000;2022-10-16T07:27:50;5.37;;;4.87;;
3261;SDS011;1643;47.746;9.000;2022-10-16T07:30:16;5.90;;;5.03;;
3261;SDS011;1643;47.746;9.000;2022-10-16T07:32:42;6.97;;;4.43;;
3261;SDS011;1643;47.746;9.000;2022-10-16T07:35:08;10.23;;;4.17;;
3261;SDS011;1643;47.746;9.000;2022-10-16T07:37:34;8.03;;;5.07;;
3261;SDS011;1643;47.746;9.000;2022-10-16T07:40:00;5.47;;;4.73;;
3261;SDS011;1643;47.746;9.000;2022-10-16T07:42:26;20.73;;;13.83;;
3261;SDS011;1643;47.746;9.000;2022-10-16T07:44:53;38.40;;;25.20;;
3261;SDS011;1643;47.746;9.000;2022-10-16T07:47:19;31.23;;;20.33;;
3261;SDS011;1643;47.746;9.000;2022-10-16T07:49:45;16.07;;;11.77;;
3261;SDS011;1643;47.746;9.000;2022-10-16T07:52:11;10.00;;;7.07;;
3261;SDS011;1643;47.746;9.000;2022-10-16T07:54:37;8.70;;;6.73;;
3261;SDS011;1643;47.746;9.000;2022-10-16T07:57:03;6.33;;;4.53;;
3261;SDS011;1643;47.746;9.000;2022-10-16T07:59:29;6.07;;;4.87;;
3261;SDS011;1643;47.746;9.000;2022-10-16T08:01:55;4.53;;;4.03;;
3261;SDS011;1643;47.746;9.000;2022-10-16T08:04:21;7.03;;;4.80;;
3261;SDS011;1643;47.746;9.000;2022-10-16T08:06:47;4.80;;;4.30;;
3261;SDS011;1643;47.746;9.000;2022-10-16T08:09:14;6.93;;;3.73;;
3261;SDS011;1643;47.746;9.000;2022-10-16T08:11:40;4.13;;;3.83;;
3261;SDS011;1643;47.746;9.000;2022-10-16T08:14:06;4.20;;;3.73;;
3261;SDS011;1643;47.746;9.000;2022-10-16T08:16:32;6.30;;;4.30;;
3261;SDS011;1643;47.746;9.000;2022-10-16T08:18:58;4.57;;;4.13;;
3261;SDS011;1643;47.746;9.000;2022-10-16T08:21:24;5.00;;;4.10;;
3261;SDS011;1643;47.746;9.000;2022-10-16T08:23:50;5.17;;;4.57;;
3261;SDS011;1643;47.746;9.000;2022-10-16T08:26:18;5.70;;;4.67;;
3261;SDS011;1643;47.746;9.000;2022-10-16T08:28:44;4.53;;;4.07;;
3261;SDS011;1643;47.746;9.000;2022-10-16T08:31:11;4.40;;;4.00;;
3261;SDS011;1643;47.746;9.000;2022-10-16T08:33:38;5.47;;;4.20;;
3261;SDS011;1643;47.746;9.000;2022-10-16T08:36:05;4.13;;;3.73;;
3261;SDS011;1643;47.746;9.000;2022-10-16T08:38:31;4.17;;;3.77;;
3261;SDS011;1643;47.746;9.000;2022-10-16T08:41:01;6.13;;;3.77;;
3261;SDS011;1643;47.746;9.000;2022-10-16T08:51:04;6.67;;;4.90;;
3261;SDS011;1643;47.746;9.000;2022-10-16T08:53:51;7.20;;;4.20;;
3261;SDS011;1643;47.746;9.000;2022-10-16T08:56:18;5.20;;;4.00;;
3261;SDS011;1643;47.746;9.000;2022-10-16T08:58:44;4.73;;;3.67;;
3261;SDS011;1643;47.746;9.000;2022-10-16T09:01:12;5.63;;;3.87;;
3261;SDS011;1643;47.746;9.000;2022-10-16T09:03:58;4.47;;;4.07;;
3261;SDS011;1643;47.746;9.000;2022-10-16T09:06:46;5.30;;;3.90;;
3261;SDS011;1643;47.746;9.000;2022-10-16T09:09:25;5.23;;;3.77;;
3261;SDS011;1643;47.746;9.000;2022-10-16T09:14:32;3.37;;;3.07;;
3261;SDS011;1643;47.746;9.000;2022-10-16T09:19:39;6.80;;;4.30;;
3261;SDS011;1643;47.746;9.000;2022-10-16T09:22:11;3.60;;;3.13;;
3261;SDS011;1643;47.746;9.000;2022-10-16T09:24:38;3.80;;;3.50;;
3261;SDS011;1643;47.746;9.000;2022-10-16T09:27:04;3.97;;;3.20;;
3261;SDS011;1643;47.746;9.000;2022-10-16T09:29:30;2.97;;;2.50;;
3261;SDS011;1643;47.746;9.000;2022-10-16T09:31:56;3.90;;;3.50;;
3261;SDS011;1643;47.746;9.000;2022-10-16T09:34:29;3.37;;;2.90;;
3261;SDS011;1643;47.746;9.000;2022-10-16T09:36:56;4.60;;;3.43;;
3261;SDS011;1643;47.746;9.000;2022-10-16T09:39:23;3.50;;;2.70;;
3261;SDS011;1643;47.746;9.000;2022-10-16T09:41:49;3.60;;;3.00;;
3261;SDS011;1643;47.746;9.000;2022-10-16T09:44:25;5.40;;;2.93;;
3261;SDS011;1643;47.746;9.000;2022-10-16T09:49:37;3.17;;;2.87;;
3261;SDS011;1643;47.746;9.000;2022-10-16T09:52:04;2.70;;;2.50;;
3261;SDS011;1643;47.746;9.000;2022-10-16T09:54:31;6.40;;;3.23;;
3261;SDS011;1643;47.746;9.000;2022-10-16T09:57:06;3.40;;;3.10;;
3261;SDS011;1643;47.746;9.000;2022-10-16T09:59:33;3.27;;;3.03;;
3261;SDS011;1643;47.746;9.000;2022-10-16T10:02:03;3.07;;;2.50;;
3261;SDS011;1643;47.746;9.000;2022-10-16T10:04:37;3.23;;;2.93;;
3261;SDS011;1643;47.746;9.000;2022-10-16T10:07:04;3.27;;;2.97;;
3261;SDS011;1643;47.746;9.000;2022-10-16T10:09:37;2.83;;;2.63;;
3261;SDS011;1643;47.746;9.000;2022-10-16T10:12:04;2.80;;;2.60;;
3261;SDS011;1643;47.746;9.000;2022-10-16T10:14:37;2.90;;;2.70;;
3261;SDS011;1643;47.746;9.000;2022-10-16T10:19:37;3.07;;;2.77;;
3261;SDS011;1643;47.746;9.000;2022-10-16T10:35:07;3.50;;;2.70;;
3261;SDS011;1643;47.746;9.000;2022-10-16T10:43:26;2.80;;;2.50;;
3261;SDS011;1643;47.746;9.000;2022-10-16T10:45:47;2.80;;;2.60;;
3261;SDS011;1643;47.746;9.000;2022-10-16T10:48:35;3.60;;;3.30;;
3261;SDS011;1643;47.746;9.000;2022-10-16T10:51:10;5.47;;;3.40;;
3261;SDS011;1643;47.746;9.000;2022-10-16T10:53:47;3.53;;;3.23;;
3261;SDS011;1643;47.746;9.000;2022-10-16T11:01:26;2.77;;;2.57;;
3261;SDS011;1643;47.746;9.000;2022-10-16T11:06:31;3.37;;;2.73;;
3261;SDS011;1643;47.746;9.000;2022-10-16T11:09:07;3.17;;;2.60;;
3261;SDS011;1643;47.746;9.000;2022-10-16T11:11:38;2.30;;;1.93;;
3261;SDS011;1643;47.746;9.000;2022-10-16T11:14:11;2.53;;;2.17;;
3261;SDS011;1643;47.746;9.000;2022-10-16T11:16:42;4.80;;;2.80;;
3261;SDS011;1643;47.746;9.000;2022-10-16T11:19:53;2.20;;;2.00;;
3261;SDS011;1643;47.746;9.000;2022-10-16T11:22:07;2.20;;;2.00;;
3261;SDS011;1643;47.746;9.000;2022-10-16T11:24:43;2.37;;;2.17;;
3261;SDS011;1643;47.746;9.000;2022-10-16T11:27:12;3.17;;;2.20;;
3261;SDS011;1643;47.746;9.000;2022-10-16T11:29:53;2.37;;;2.17;;
3261;SDS011;1643;47.746;9.000;2022-10-16T11:32:31;2.23;;;1.80;;
3261;SDS011;1643;47.746;9.000;2022-10-16T11:35:06;1.50;;;1.40;;
3261;SDS011;1643;47.746;9.000;2022-10-16T11:37:41;2.10;;;1.90;;
3261;SDS011;1643;47.746;9.000;2022-10-16T11:43:05;1.83;;;1.73;;
3261;SDS011;1643;47.746;9.000;2022-10-16T11:46:04;1.80;;;1.70;;
3261;SDS011;1643;47.746;9.000;2022-10-16T11:48:41;1.70;;;1.60;;
3261;SDS011;1643;47.746;9.000;2022-10-16T11:56:25;1.80;;;1.70;;
3261;SDS011;1643;47.746;9.000;2022-10-16T11:58:53;2.20;;;2.00;;
3261;SDS011;1643;47.746;9.000;2022-10-16T12:01:47;2.70;;;1.77;;
3261;SDS011;1643;47.746;9.000;2022-10-16T12:04:19;2.10;;;2.00;;
3261;SDS011;1643;47.746;9.000;2022-10-16T12:07:22;2.53;;;2.00;;
3261;SDS011;1643;47.746;9.000;2022-10-16T12:09:57;2.27;;;2.07;;
3261;SDS011;1643;47.746;9.000;2022-10-16T12:12:26;4.87;;;1.80;;
3261;SDS011;1643;47.746;9.000;2022-10-16T12:15:03;2.47;;;2.00;;
3261;SDS011;1643;47.746;9.000;2022-10-16T12:17:46;2.03;;;1.77;;
3261;SDS011;1643;47.746;9.000;2022-10-16T12:22:41;1.80;;;1.70;;
3261;SDS011;1643;47.746;9.000;2022-10-16T12:25:32;2.07;;;1.60;;
3261;SDS011;1643;47.746;9.000;2022-10-16T12:30:42;1.50;;;1.40;;
3261;SDS011;1643;47.746;9.000;2022-10-16T12:33:19;2.67;;;1.40;;
3261;SDS011;1643;47.746;9.000;2022-10-16T12:35:48;1.60;;;1.50;;
3261;SDS011;1643;47.746;9.000;2022-10-16T12:41:31;1.63;;;1.53;;
3261;SDS011;1643;47.746;9.000;2022-10-16T12:43:59;1.50;;;1.40;;
3261;SDS011;1643;47.746;9.000;2022-10-16T12:46:34;1.80;;;1.60;;
3261;SDS011;1643;47.746;9.000;2022-10-16T12:51:37;2.30;;;2.10;;
3261;SDS011;1643;47.746;9.000;2022-10-16T13:12:49;2.83;;;2.60;;
